sensor_id;sensor_type;location;lat;lon;timestamp;P1;durP1;ratioP1;P2;durP2;ratioP2
7983;SDS011;4037;47.980;10.172;2022-11-15T00:02:28;6.00;;;4.93;;
7983;SDS011;4037;47.980;10.172;2022-11-15T00:04:54;5.50;;;4.57;;
7983;SDS011;4037;47.980;10.172;2022-11-15T00:07:20;5.00;;;4.33;;
7983;SDS011;4037;47.980;10.172;2022-11-15T00:09:46;5.50;;;4.87;;
7983;SDS011;4037;47.980;10.172;2022-11-15T00:12:12;4.80;;;4.33;;
7983;SDS011;4037;47.980;10.172;2022-11-15T00:14:38;5.80;;;4.97;;
7983;SDS011;4037;47.980;10.172;2022-11-15T00:17:04;4.97;;;4.20;;
7983;SDS011;4037;47.980;10.172;2022-11-15T00:19:30;5.57;;;4.50;;
7983;SDS011;4037;47.980;10.172;2022-11-15T00:21:56;5.90;;;5.30;;
7983;SDS011;4037;47.980;10.172;2022-11-15T00:24:22;5.87;;;5.27;;
7983;SDS011;4037;47.980;10.172;2022-11-15T00:26:48;6.37;;;5.63;;
7983;SDS011;4037;47.980;10.172;2022-11-15T00:29:14;7.43;;;5.13;;
7983;SDS011;4037;47.980;10.172;2022-11-15T00:31:40;5.27;;;4.77;;
7983;SDS011;4037;47.980;10.172;2022-11-15T00:34:06;6.47;;;4.83;;
7983;SDS011;4037;47.980;10.172;2022-11-15T00:36:33;6.23;;;5.17;;
7983;SDS011;4037;47.980;10.172;2022-11-15T00:38:59;5.43;;;4.77;;
7983;SDS011;4037;47.980;10.172;2022-11-15T00:41:25;6.07;;;4.73;;
7983;SDS011;4037;47.980;10.172;2022-11-15T00:43:51;5.63;;;4.70;;
7983;SDS011;4037;47.980;10.172;2022-11-15T00:46:17;7.33;;;5.20;;
7983;SDS011;4037;47.980;10.172;2022-11-15T00:48:43;6.13;;;4.83;;
7983;SDS011;4037;47.980;10.172;2022-11-15T00:51:09;5.10;;;4.60;;
7983;SDS011;4037;47.980;10.172;2022-11-15T00:53:35;5.87;;;4.67;;
7983;SDS011;4037;47.980;10.172;2022-11-15T00:56:01;6.13;;;5.10;;
7983;SDS011;4037;47.980;10.172;2022-11-15T00:58:28;7.23;;;4.90;;
7983;SDS011;4037;47.980;10.172;2022-11-15T01:00:54;6.23;;;5.13;;
7983;SDS011;4037;47.980;10.172;2022-11-15T01:03:19;5.73;;;5.00;;
7983;SDS011;4037;47.980;10.172;2022-11-15T01:05:45;6.77;;;4.77;;
7983;SDS011;4037;47.980;10.172;2022-11-15T01:08:15;5.17;;;4.50;;
7983;SDS011;4037;47.980;10.172;2022-11-15T01:10:41;5.57;;;4.47;;
7983;SDS011;4037;47.980;10.172;2022-11-15T01:13:07;6.20;;;5.60;;
7983;SDS011;4037;47.980;10.172;2022-11-15T01:15:33;6.20;;;5.13;;
7983;SDS011;4037;47.980;10.172;2022-11-15T01:17:59;5.23;;;4.73;;
7983;SDS011;4037;47.980;10.172;2022-11-15T01:20:25;5.90;;;5.27;;
7983;SDS011;4037;47.980;10.172;2022-11-15T01:22:51;5.07;;;4.53;;
7983;SDS011;4037;47.980;10.172;2022-11-15T01:25:17;5.53;;;5.03;;
7983;SDS011;4037;47.980;10.172;2022-11-15T01:27:43;6.13;;;5.50;;
7983;SDS011;4037;47.980;10.172;2022-11-15T01:30:09;5.10;;;4.60;;
7983;SDS011;4037;47.980;10.172;2022-11-15T01:32:35;5.60;;;4.97;;
7983;SDS011;4037;47.980;10.172;2022-11-15T01:35:01;5.80;;;4.93;;
7983;SDS011;4037;47.980;10.172;2022-11-15T01:37:27;5.43;;;4.93;;
7983;SDS011;4037;47.980;10.172;2022-11-15T01:39:53;7.40;;;5.20;;
7983;SDS011;4037;47.980;10.172;2022-11-15T01:42:19;5.23;;;4.63;;
7983;SDS011;4037;47.980;10.172;2022-11-15T01:44:49;6.50;;;5.33;;
7983;SDS011;4037;47.980;10.172;2022-11-15T01:47:16;6.97;;;5.03;;
7983;SDS011;4037;47.980;10.172;2022-11-15T01:50:05;6.33;;;4.60;;
7983;SDS011;4037;47.980;10.172;2022-11-15T01:52:30;5.37;;;4.87;;
7983;SDS011;4037;47.980;10.172;2022-11-15T01:55:08;7.07;;;5.40;;
7983;SDS011;4037;47.980;10.172;2022-11-15T01:57:35;5.37;;;4.83;;
7983;SDS011;4037;47.980;10.172;2022-11-15T02:00:02;7.37;;;4.80;;
7983;SDS011;4037;47.980;10.172;2022-11-15T02:02:30;5.70;;;4.93;;
7983;SDS011;4037;47.980;10.172;2022-11-15T02:04:56;5.83;;;5.03;;
7983;SDS011;4037;47.980;10.172;2022-11-15T02:07:22;5.47;;;4.77;;
7983;SDS011;4037;47.980;10.172;2022-11-15T02:09:48;4.67;;;4.27;;
7983;SDS011;4037;47.980;10.172;2022-11-15T02:12:16;5.67;;;4.73;;
7983;SDS011;4037;47.980;10.172;2022-11-15T02:14:44;5.10;;;4.33;;
7983;SDS011;4037;47.980;10.172;2022-11-15T02:17:25;5.17;;;4.13;;
7983;SDS011;4037;47.980;10.172;2022-11-15T02:30:04;9.00;;;5.73;;
7983;SDS011;4037;47.980;10.172;2022-11-15T02:32:44;6.37;;;4.80;;
7983;SDS011;4037;47.980;10.172;2022-11-15T02:37:51;6.63;;;4.70;;
7983;SDS011;4037;47.980;10.172;2022-11-15T02:42:53;5.40;;;4.57;;
7983;SDS011;4037;47.980;10.172;2022-11-15T02:45:44;5.37;;;4.67;;
7983;SDS011;4037;47.980;10.172;2022-11-15T02:48:11;7.70;;;4.60;;
7983;SDS011;4037;47.980;10.172;2022-11-15T02:50:38;5.33;;;4.83;;
7983;SDS011;4037;47.980;10.172;2022-11-15T02:53:04;5.03;;;4.53;;
7983;SDS011;4037;47.980;10.172;2022-11-15T02:55:34;6.00;;;4.90;;
7983;SDS011;4037;47.980;10.172;2022-11-15T03:01:28;5.10;;;4.17;;
7983;SDS011;4037;47.980;10.172;2022-11-15T03:09:21;7.77;;;4.60;;
7983;SDS011;4037;47.980;10.172;2022-11-15T03:11:50;5.77;;;5.23;;
7983;SDS011;4037;47.980;10.172;2022-11-15T03:14:22;5.30;;;4.80;;
7983;SDS011;4037;47.980;10.172;2022-11-15T03:19:30;5.60;;;5.10;;
7983;SDS011;4037;47.980;10.172;2022-11-15T03:21:58;5.00;;;4.33;;
7983;SDS011;4037;47.980;10.172;2022-11-15T03:24:25;5.47;;;4.20;;
7983;SDS011;4037;47.980;10.172;2022-11-15T03:26:53;5.87;;;5.23;;
7983;SDS011;4037;47.980;10.172;2022-11-15T03:29:22;5.90;;;4.73;;
7983;SDS011;4037;47.980;10.172;2022-11-15T03:31:51;5.13;;;4.10;;
7983;SDS011;4037;47.980;10.172;2022-11-15T03:34:19;5.07;;;4.60;;
7983;SDS011;4037;47.980;10.172;2022-11-15T03:36:47;5.73;;;4.93;;
7983;SDS011;4037;47.980;10.172;2022-11-15T03:39:13;6.00;;;4.87;;
7983;SDS011;4037;47.980;10.172;2022-11-15T03:41:42;4.60;;;4.13;;
7983;SDS011;4037;47.980;10.172;2022-11-15T03:44:18;5.50;;;4.40;;
7983;SDS011;4037;47.980;10.172;2022-11-15T03:46:47;5.30;;;4.50;;
7983;SDS011;4037;47.980;10.172;2022-11-15T03:49:16;5.53;;;4.47;;
7983;SDS011;4037;47.980;10.172;2022-11-15T03:51:43;4.10;;;3.70;;
7983;SDS011;4037;47.980;10.172;2022-11-15T03:54:11;5.20;;;4.63;;
7983;SDS011;4037;47.980;10.172;2022-11-15T03:56:37;4.97;;;4.47;;
7983;SDS011;4037;47.980;10.172;2022-11-15T03:59:03;5.60;;;4.33;;
7983;SDS011;4037;47.980;10.172;2022-11-15T04:01:29;5.20;;;4.70;;
7983;SDS011;4037;47.980;10.172;2022-11-15T04:03:55;4.77;;;3.97;;
7983;SDS011;4037;47.980;10.172;2022-11-15T04:06:21;5.70;;;4.83;;
7983;SDS011;4037;47.980;10.172;2022-11-15T04:08:47;4.83;;;3.60;;
7983;SDS011;4037;47.980;10.172;2022-11-15T04:11:13;6.07;;;4.07;;
7983;SDS011;4037;47.980;10.172;2022-11-15T04:13:39;4.83;;;4.00;;
7983;SDS011;4037;47.980;10.172;2022-11-15T04:16:05;6.00;;;3.77;;
7983;SDS011;4037;47.980;10.172;2022-11-15T04:18:31;6.23;;;4.33;;
7983;SDS011;4037;47.980;10.172;2022-11-15T04:20:57;4.20;;;3.80;;
7983;SDS011;4037;47.980;10.172;2022-11-15T04:23:42;4.63;;;4.00;;
7983;SDS011;4037;47.980;10.172;2022-11-15T04:26:26;7.03;;;3.83;;
7983;SDS011;4037;47.980;10.172;2022-11-15T04:28:52;4.80;;;4.30;;
7983;SDS011;4037;47.980;10.172;2022-11-15T04:31:37;4.63;;;3.60;;
7983;SDS011;4037;47.980;10.172;2022-11-15T04:34:03;5.27;;;3.57;;
7983;SDS011;4037;47.980;10.172;2022-11-15T04:36:29;6.03;;;4.40;;
7983;SDS011;4037;47.980;10.172;2022-11-15T04:39:14;5.27;;;3.90;;
7983;SDS011;4037;47.980;10.172;2022-11-15T04:41:40;4.50;;;4.10;;
7983;SDS011;4037;47.980;10.172;2022-11-15T04:44:06;4.83;;;4.27;;
7983;SDS011;4037;47.980;10.172;2022-11-15T04:46:32;5.20;;;4.23;;
7983;SDS011;4037;47.980;10.172;2022-11-15T04:48:58;4.80;;;4.03;;
7983;SDS011;4037;47.980;10.172;2022-11-15T04:51:24;4.33;;;3.93;;
7983;SDS011;4037;47.980;10.172;2022-11-15T04:53:50;4.10;;;3.70;;
7983;SDS011;4037;47.980;10.172;2022-11-15T04:56:16;5.63;;;4.20;;
7983;SDS011;4037;47.980;10.172;2022-11-15T04:58:42;4.87;;;4.37;;
7983;SDS011;4037;47.980;10.172;2022-11-15T05:01:08;4.67;;;4.27;;
7983;SDS011;4037;47.980;10.172;2022-11-15T05:03:34;4.93;;;4.03;;
7983;SDS011;4037;47.980;10.172;2022-11-15T05:06:19;6.47;;;3.97;;
7983;SDS011;4037;47.980;10.172;2022-11-15T05:08:45;10.20;;;5.27;;
7983;SDS011;4037;47.980;10.172;2022-11-15T05:11:11;5.27;;;4.23;;
7983;SDS011;4037;47.980;10.172;2022-11-15T05:13:37;4.73;;;3.67;;
7983;SDS011;4037;47.980;10.172;2022-11-15T05:16:03;4.50;;;3.60;;
7983;SDS011;4037;47.980;10.172;2022-11-15T05:18:29;4.70;;;4.20;;
7983;SDS011;4037;47.980;10.172;2022-11-15T05:20:55;5.57;;;4.27;;
7983;SDS011;4037;47.980;10.172;2022-11-15T05:23:21;4.97;;;4.37;;
7983;SDS011;4037;47.980;10.172;2022-11-15T05:25:47;4.27;;;3.80;;
7983;SDS011;4037;47.980;10.172;2022-11-15T05:28:13;6.13;;;4.17;;
7983;SDS011;4037;47.980;10.172;2022-11-15T05:30:39;6.60;;;4.80;;
7983;SDS011;4037;47.980;10.172;2022-11-15T05:33:05;8.07;;;5.03;;
7983;SDS011;4037;47.980;10.172;2022-11-15T05:35:33;6.70;;;5.23;;
7983;SDS011;4037;47.980;10.172;2022-11-15T05:38:00;7.50;;;5.07;;
7983;SDS011;4037;47.980;10.172;2022-11-15T05:40:26;6.17;;;4.77;;
7983;SDS011;4037;47.980;10.172;2022-11-15T05:42:53;6.87;;;5.20;;
7983;SDS011;4037;47.980;10.172;2022-11-15T05:45:19;6.83;;;4.60;;
7983;SDS011;4037;47.980;10.172;2022-11-15T05:47:45;8.37;;;5.23;;
7983;SDS011;4037;47.980;10.172;2022-11-15T05:50:12;6.63;;;4.63;;
7983;SDS011;4037;47.980;10.172;2022-11-15T05:52:40;7.63;;;4.93;;
7983;SDS011;4037;47.980;10.172;2022-11-15T05:55:07;6.03;;;4.30;;
7983;SDS011;4037;47.980;10.172;2022-11-15T05:57:34;5.03;;;4.53;;
7983;SDS011;4037;47.980;10.172;2022-11-15T06:00:00;6.37;;;4.70;;
7983;SDS011;4037;47.980;10.172;2022-11-15T06:02:27;5.67;;;4.77;;
7983;SDS011;4037;47.980;10.172;2022-11-15T06:04:52;7.27;;;4.90;;
7983;SDS011;4037;47.980;10.172;2022-11-15T06:07:18;6.73;;;4.77;;
7983;SDS011;4037;47.980;10.172;2022-11-15T06:09:44;7.30;;;5.17;;
7983;SDS011;4037;47.980;10.172;2022-11-15T06:12:10;5.60;;;5.00;;
7983;SDS011;4037;47.980;10.172;2022-11-15T06:14:36;6.07;;;4.70;;
7983;SDS011;4037;47.980;10.172;2022-11-15T06:17:02;6.63;;;4.90;;
7983;SDS011;4037;47.980;10.172;2022-11-15T06:19:29;5.53;;;4.47;;
7983;SDS011;4037;47.980;10.172;2022-11-15T06:21:58;7.30;;;5.30;;
7983;SDS011;4037;47.980;10.172;2022-11-15T06:24:24;5.47;;;4.90;;
7983;SDS011;4037;47.980;10.172;2022-11-15T06:26:50;7.40;;;5.73;;
7983;SDS011;4037;47.980;10.172;2022-11-15T06:29:16;8.13;;;5.77;;
7983;SDS011;4037;47.980;10.172;2022-11-15T06:31:42;6.17;;;5.40;;
7983;SDS011;4037;47.980;10.172;2022-11-15T06:34:08;8.43;;;5.20;;
7983;SDS011;4037;47.980;10.172;2022-11-15T06:36:34;7.13;;;5.37;;
7983;SDS011;4037;47.980;10.172;2022-11-15T06:39:01;8.07;;;6.10;;
7983;SDS011;4037;47.980;10.172;2022-11-15T06:41:27;7.80;;;5.37;;
7983;SDS011;4037;47.980;10.172;2022-11-15T06:43:53;7.00;;;5.43;;
7983;SDS011;4037;47.980;10.172;2022-11-15T06:46:19;11.00;;;6.27;;
7983;SDS011;4037;47.980;10.172;2022-11-15T06:48:45;6.40;;;5.40;;
7983;SDS011;4037;47.980;10.172;2022-11-15T06:51:11;7.20;;;4.63;;
7983;SDS011;4037;47.980;10.172;2022-11-15T06:53:37;5.53;;;5.03;;
7983;SDS011;4037;47.980;10.172;2022-11-15T06:56:04;7.03;;;5.17;;
7983;SDS011;4037;47.980;10.172;2022-11-15T06:58:31;6.73;;;5.77;;
7983;SDS011;4037;47.980;10.172;2022-11-15T07:01:07;8.27;;;5.93;;
7983;SDS011;4037;47.980;10.172;2022-11-15T07:03:40;7.03;;;5.53;;
7983;SDS011;4037;47.980;10.172;2022-11-15T07:06:07;6.47;;;5.00;;
7983;SDS011;4037;47.980;10.172;2022-11-15T07:08:33;7.23;;;5.20;;
7983;SDS011;4037;47.980;10.172;2022-11-15T07:11:03;8.87;;;6.37;;
7983;SDS011;4037;47.980;10.172;2022-11-15T07:13:29;8.70;;;5.57;;
7983;SDS011;4037;47.980;10.172;2022-11-15T07:16:02;8.10;;;5.87;;
7983;SDS011;4037;47.980;10.172;2022-11-15T07:18:28;9.10;;;5.97;;
7983;SDS011;4037;47.980;10.172;2022-11-15T07:20:55;6.60;;;5.20;;
7983;SDS011;4037;47.980;10.172;2022-11-15T07:23:21;7.73;;;4.93;;
7983;SDS011;4037;47.980;10.172;2022-11-15T07:25:47;6.13;;;5.00;;
7983;SDS011;4037;47.980;10.172;2022-11-15T07:28:13;5.17;;;4.67;;
7983;SDS011;4037;47.980;10.172;2022-11-15T07:30:39;5.27;;;4.23;;
7983;SDS011;4037;47.980;10.172;2022-11-15T07:33:04;5.33;;;4.83;;
7983;SDS011;4037;47.980;10.172;2022-11-15T07:35:30;5.60;;;4.70;;
7983;SDS011;4037;47.980;10.172;2022-11-15T07:38:00;6.10;;;4.83;;
7983;SDS011;4037;47.980;10.172;2022-11-15T07:40:27;7.73;;;5.90;;
7983;SDS011;4037;47.980;10.172;2022-11-15T07:43:03;11.73;;;8.07;;
7983;SDS011;4037;47.980;10.172;2022-11-15T07:45:30;8.53;;;5.83;;
7983;SDS011;4037;47.980;10.172;2022-11-15T07:47:58;8.87;;;5.93;;
7983;SDS011;4037;47.980;10.172;2022-11-15T07:50:25;7.07;;;5.83;;
7983;SDS011;4037;47.980;10.172;2022-11-15T07:52:56;11.40;;;6.03;;
7983;SDS011;4037;47.980;10.172;2022-11-15T07:55:26;6.67;;;4.20;;
7983;SDS011;4037;47.980;10.172;2022-11-15T07:57:59;6.33;;;4.40;;
7983;SDS011;4037;47.980;10.172;2022-11-15T08:00:25;4.63;;;4.10;;
7983;SDS011;4037;47.980;10.172;2022-11-15T08:02:52;4.60;;;3.73;;
7983;SDS011;4037;47.980;10.172;2022-11-15T08:05:18;6.83;;;4.43;;
7983;SDS011;4037;47.980;10.172;2022-11-15T08:07:44;4.53;;;4.07;;
7983;SDS011;4037;47.980;10.172;2022-11-15T08:10:10;4.53;;;3.80;;
7983;SDS011;4037;47.980;10.172;2022-11-15T08:12:37;5.53;;;4.20;;
7983;SDS011;4037;47.980;10.172;2022-11-15T08:15:03;4.43;;;3.77;;
7983;SDS011;4037;47.980;10.172;2022-11-15T08:17:29;7.00;;;4.43;;
7983;SDS011;4037;47.980;10.172;2022-11-15T08:19:57;5.60;;;3.83;;
7983;SDS011;4037;47.980;10.172;2022-11-15T08:22:23;4.93;;;4.20;;
7983;SDS011;4037;47.980;10.172;2022-11-15T08:24:49;5.73;;;4.10;;
7983;SDS011;4037;47.980;10.172;2022-11-15T08:27:15;5.47;;;3.80;;
7983;SDS011;4037;47.980;10.172;2022-11-15T08:29:44;8.87;;;3.50;;
7983;SDS011;4037;47.980;10.172;2022-11-15T08:32:11;4.40;;;3.93;;
7983;SDS011;4037;47.980;10.172;2022-11-15T08:34:37;4.73;;;3.97;;
7983;SDS011;4037;47.980;10.172;2022-11-15T08:37:04;6.27;;;5.27;;
7983;SDS011;4037;47.980;10.172;2022-11-15T08:39:30;6.03;;;5.20;;
7983;SDS011;4037;47.980;10.172;2022-11-15T08:41:56;7.57;;;5.67;;
7983;SDS011;4037;47.980;10.172;2022-11-15T08:44:22;10.40;;;6.33;;
7983;SDS011;4037;47.980;10.172;2022-11-15T08:46:49;7.87;;;5.93;;
7983;SDS011;4037;47.980;10.172;2022-11-15T08:49:15;7.57;;;6.67;;
7983;SDS011;4037;47.980;10.172;2022-11-15T08:51:40;7.90;;;5.03;;
7983;SDS011;4037;47.980;10.172;2022-11-15T08:54:06;6.43;;;4.87;;
7983;SDS011;4037;47.980;10.172;2022-11-15T08:56:32;7.33;;;5.07;;
7983;SDS011;4037;47.980;10.172;2022-11-15T08:58:58;9.73;;;4.90;;
7983;SDS011;4037;47.980;10.172;2022-11-15T09:01:24;6.63;;;4.40;;
7983;SDS011;4037;47.980;10.172;2022-11-15T09:03:50;5.10;;;4.57;;
7983;SDS011;4037;47.980;10.172;2022-11-15T09:06:17;6.43;;;4.00;;
7983;SDS011;4037;47.980;10.172;2022-11-15T09:08:43;9.20;;;5.17;;
7983;SDS011;4037;47.980;10.172;2022-11-15T09:11:09;7.57;;;5.40;;
7983;SDS011;4037;47.980;10.172;2022-11-15T09:13:36;6.63;;;5.10;;
7983;SDS011;4037;47.980;10.172;2022-11-15T09:16:02;5.83;;;4.93;;
7983;SDS011;4037;47.980;10.172;2022-11-15T09:18:28;6.87;;;4.63;;
7983;SDS011;4037;47.980;10.172;2022-11-15T09:20:55;5.60;;;4.13;;
7983;SDS011;4037;47.980;10.172;2022-11-15T09:23:21;6.73;;;3.90;;
7983;SDS011;4037;47.980;10.172;2022-11-15T09:25:47;9.90;;;4.57;;
7983;SDS011;4037;47.980;10.172;2022-11-15T09:28:13;7.43;;;3.97;;
7983;SDS011;4037;47.980;10.172;2022-11-15T09:30:39;8.53;;;3.83;;
7983;SDS011;4037;47.980;10.172;2022-11-15T09:33:06;6.33;;;4.53;;
7983;SDS011;4037;47.980;10.172;2022-11-15T09:35:32;9.73;;;4.30;;
7983;SDS011;4037;47.980;10.172;2022-11-15T09:37:59;9.93;;;4.77;;
7983;SDS011;4037;47.980;10.172;2022-11-15T09:40:25;5.57;;;4.00;;
7983;SDS011;4037;47.980;10.172;2022-11-15T09:48:05;9.27;;;3.97;;
7983;SDS011;4037;47.980;10.172;2022-11-15T09:53:00;9.73;;;4.70;;
7983;SDS011;4037;47.980;10.172;2022-11-15T09:55:42;7.30;;;4.30;;
7983;SDS011;4037;47.980;10.172;2022-11-15T10:00:48;5.00;;;3.10;;
7983;SDS011;4037;47.980;10.172;2022-11-15T10:05:47;7.53;;;3.77;;
7983;SDS011;4037;47.980;10.172;2022-11-15T10:08:28;4.33;;;3.33;;
7983;SDS011;4037;47.980;10.172;2022-11-15T10:10:58;6.37;;;3.20;;
7983;SDS011;4037;47.980;10.172;2022-11-15T10:13:30;9.93;;;3.67;;
7983;SDS011;4037;47.980;10.172;2022-11-15T10:21:29;9.70;;;4.57;;
7983;SDS011;4037;47.980;10.172;2022-11-15T10:23:58;3.73;;;3.07;;
7983;SDS011;4037;47.980;10.172;2022-11-15T10:26:24;3.60;;;3.23;;
7983;SDS011;4037;47.980;10.172;2022-11-15T10:28:50;3.20;;;2.90;;
7983;SDS011;4037;47.980;10.172;2022-11-15T10:31:23;3.90;;;2.90;;
7983;SDS011;4037;47.980;10.172;2022-11-15T10:33:50;6.60;;;3.27;;
7983;SDS011;4037;47.980;10.172;2022-11-15T10:36:20;3.30;;;3.00;;
7983;SDS011;4037;47.980;10.172;2022-11-15T10:43:42;3.97;;;3.00;;
7983;SDS011;4037;47.980;10.172;2022-11-15T10:46:19;3.20;;;2.90;;
7983;SDS011;4037;47.980;10.172;2022-11-15T10:48:45;3.40;;;2.90;;
7983;SDS011;4037;47.980;10.172;2022-11-15T10:51:22;5.90;;;3.17;;
7983;SDS011;4037;47.980;10.172;2022-11-15T10:53:53;3.53;;;2.80;;
7983;SDS011;4037;47.980;10.172;2022-11-15T10:56:20;3.77;;;3.30;;
7983;SDS011;4037;47.980;10.172;2022-11-15T10:58:50;4.23;;;3.20;;
7983;SDS011;4037;47.980;10.172;2022-11-15T11:01:18;3.50;;;3.20;;
7983;SDS011;4037;47.980;10.172;2022-11-15T11:03:45;4.37;;;3.87;;
7983;SDS011;4037;47.980;10.172;2022-11-15T11:06:24;5.83;;;2.83;;
7983;SDS011;4037;47.980;10.172;2022-11-15T11:11:22;3.53;;;3.07;;
7983;SDS011;4037;47.980;10.172;2022-11-15T11:13:48;3.70;;;3.33;;
7983;SDS011;4037;47.980;10.172;2022-11-15T11:18:55;4.73;;;3.50;;
7983;SDS011;4037;47.980;10.172;2022-11-15T11:24:09;4.10;;;3.20;;
7983;SDS011;4037;47.980;10.172;2022-11-15T11:26:49;3.07;;;2.77;;
7983;SDS011;4037;47.980;10.172;2022-11-15T11:37:39;4.87;;;3.03;;
7983;SDS011;4037;47.980;10.172;2022-11-15T11:42:56;5.07;;;3.40;;
7983;SDS011;4037;47.980;10.172;2022-11-15T11:45:36;5.13;;;3.40;;
7983;SDS011;4037;47.980;10.172;2022-11-15T11:48:14;4.10;;;3.70;;
7983;SDS011;4037;47.980;10.172;2022-11-15T11:50:44;4.70;;;3.47;;
7983;SDS011;4037;47.980;10.172;2022-11-15T11:55:37;4.63;;;3.70;;
7983;SDS011;4037;47.980;10.172;2022-11-15T12:00:31;4.67;;;3.67;;
7983;SDS011;4037;47.980;10.172;2022-11-15T12:05:28;8.27;;;3.90;;
7983;SDS011;4037;47.980;10.172;2022-11-15T12:07:59;4.43;;;3.23;;
7983;SDS011;4037;47.980;10.172;2022-11-15T12:10:29;4.40;;;3.90;;
7983;SDS011;4037;47.980;10.172;2022-11-15T12:13:07;5.67;;;3.63;;
7983;SDS011;4037;47.980;10.172;2022-11-15T12:15:38;4.20;;;3.37;;
7983;SDS011;4037;47.980;10.172;2022-11-15T12:18:07;4.37;;;3.60;;
7983;SDS011;4037;47.980;10.172;2022-11-15T12:20:34;4.13;;;2.90;;
7983;SDS011;4037;47.980;10.172;2022-11-15T12:23:15;3.60;;;2.73;;
7983;SDS011;4037;47.980;10.172;2022-11-15T12:25:53;4.30;;;2.70;;
7983;SDS011;4037;47.980;10.172;2022-11-15T12:31:03;3.53;;;2.73;;
7983;SDS011;4037;47.980;10.172;2022-11-15T12:33:31;3.33;;;3.00;;
7983;SDS011;4037;47.980;10.172;2022-11-15T12:36:00;3.70;;;3.23;;
7983;SDS011;4037;47.980;10.172;2022-11-15T12:41:12;5.90;;;3.10;;
7983;SDS011;4037;47.980;10.172;2022-11-15T12:43:39;4.23;;;3.63;;
7983;SDS011;4037;47.980;10.172;2022-11-15T12:46:06;3.40;;;3.10;;
7983;SDS011;4037;47.980;10.172;2022-11-15T12:51:02;4.30;;;3.07;;
7983;SDS011;4037;47.980;10.172;2022-11-15T12:53:29;3.43;;;2.80;;
7983;SDS011;4037;47.980;10.172;2022-11-15T12:58:39;3.77;;;3.27;;
7983;SDS011;4037;47.980;10.172;2022-11-15T13:01:07;5.77;;;3.30;;
7983;SDS011;4037;47.980;10.172;2022-11-15T13:03:33;4.90;;;3.30;;
7983;SDS011;4037;47.980;10.172;2022-11-15T13:06:00;6.57;;;3.70;;
7983;SDS011;4037;47.980;10.172;2022-11-15T13:08:44;4.10;;;3.37;;
7983;SDS011;4037;47.980;10.172;2022-11-15T13:13:56;6.00;;;3.70;;
7983;SDS011;4037;47.980;10.172;2022-11-15T13:16:22;4.00;;;3.60;;
7983;SDS011;4037;47.980;10.172;2022-11-15T13:18:53;4.40;;;3.80;;
7983;SDS011;4037;47.980;10.172;2022-11-15T13:21:21;4.57;;;4.17;;
7983;SDS011;4037;47.980;10.172;2022-11-15T13:24:10;7.63;;;3.70;;
7983;SDS011;4037;47.980;10.172;2022-11-15T13:26:37;3.87;;;3.50;;
7983;SDS011;4037;47.980;10.172;2022-11-15T13:29:04;4.10;;;3.70;;
7983;SDS011;4037;47.980;10.172;2022-11-15T13:31:40;4.67;;;4.00;;
7983;SDS011;4037;47.980;10.172;2022-11-15T13:36:52;4.83;;;3.70;;
7983;SDS011;4037;47.980;10.172;2022-11-15T13:39:39;5.60;;;4.20;;
7983;SDS011;4037;47.980;10.172;2022-11-15T13:42:04;5.70;;;3.93;;
7983;SDS011;4037;47.980;10.172;2022-11-15T13:44:40;6.10;;;4.00;;
7983;SDS011;4037;47.980;10.172;2022-11-15T13:47:20;4.00;;;3.50;;
7983;SDS011;4037;47.980;10.172;2022-11-15T13:49:46;5.03;;;3.67;;
7983;SDS011;4037;47.980;10.172;2022-11-15T13:52:13;4.87;;;3.50;;
7983;SDS011;4037;47.980;10.172;2022-11-15T13:57:19;5.47;;;3.77;;
7983;SDS011;4037;47.980;10.172;2022-11-15T13:59:53;4.33;;;3.63;;
7983;SDS011;4037;47.980;10.172;2022-11-15T14:02:24;3.63;;;3.33;;
7983;SDS011;4037;47.980;10.172;2022-11-15T14:04:51;6.70;;;3.80;;
7983;SDS011;4037;47.980;10.172;2022-11-15T14:07:20;4.50;;;3.70;;
7983;SDS011;4037;47.980;10.172;2022-11-15T14:09:46;4.33;;;3.73;;
7983;SDS011;4037;47.980;10.172;2022-11-15T14:12:23;4.13;;;3.40;;
7983;SDS011;4037;47.980;10.172;2022-11-15T14:14:50;4.20;;;3.73;;
7983;SDS011;4037;47.980;10.172;2022-11-15T14:17:21;4.27;;;3.60;;
7983;SDS011;4037;47.980;10.172;2022-11-15T14:19:58;6.83;;;4.13;;
7983;SDS011;4037;47.980;10.172;2022-11-15T14:22:28;5.07;;;4.20;;
7983;SDS011;4037;47.980;10.172;2022-11-15T14:27:39;4.80;;;4.20;;
7983;SDS011;4037;47.980;10.172;2022-11-15T14:30:05;6.80;;;4.93;;
7983;SDS011;4037;47.980;10.172;2022-11-15T14:35:27;6.20;;;4.90;;
7983;SDS011;4037;47.980;10.172;2022-11-15T14:37:53;7.73;;;5.13;;
7983;SDS011;4037;47.980;10.172;2022-11-15T14:40:21;5.27;;;4.70;;
7983;SDS011;4037;47.980;10.172;2022-11-15T14:42:48;6.20;;;5.10;;
7983;SDS011;4037;47.980;10.172;2022-11-15T14:45:18;5.60;;;5.00;;
7983;SDS011;4037;47.980;10.172;2022-11-15T14:47:44;6.20;;;4.60;;
7983;SDS011;4037;47.980;10.172;2022-11-15T14:50:14;4.90;;;4.40;;
7983;SDS011;4037;47.980;10.172;2022-11-15T14:52:41;5.90;;;4.80;;
7983;SDS011;4037;47.980;10.172;2022-11-15T14:55:18;6.10;;;5.20;;
7983;SDS011;4037;47.980;10.172;2022-11-15T14:57:46;6.03;;;4.67;;
7983;SDS011;4037;47.980;10.172;2022-11-15T15:00:12;7.10;;;4.77;;
7983;SDS011;4037;47.980;10.172;2022-11-15T15:02:39;7.77;;;5.57;;
7983;SDS011;4037;47.980;10.172;2022-11-15T15:05:48;6.33;;;5.30;;
7983;SDS011;4037;47.980;10.172;2022-11-15T15:07:55;6.90;;;5.43;;
7983;SDS011;4037;47.980;10.172;2022-11-15T15:10:21;6.93;;;5.37;;
7983;SDS011;4037;47.980;10.172;2022-11-15T15:12:47;7.83;;;5.67;;
7983;SDS011;4037;47.980;10.172;2022-11-15T15:15:18;6.50;;;4.97;;
7983;SDS011;4037;47.980;10.172;2022-11-15T15:17:45;10.17;;;5.63;;
7983;SDS011;4037;47.980;10.172;2022-11-15T15:20:11;9.43;;;6.23;;
7983;SDS011;4037;47.980;10.172;2022-11-15T15:22:37;8.50;;;6.40;;
7983;SDS011;4037;47.980;10.172;2022-11-15T15:25:10;6.33;;;4.93;;
7983;SDS011;4037;47.980;10.172;2022-11-15T15:27:44;9.60;;;7.10;;
7983;SDS011;4037;47.980;10.172;2022-11-15T15:30:10;9.60;;;6.50;;
7983;SDS011;4037;47.980;10.172;2022-11-15T15:32:36;6.80;;;5.47;;
7983;SDS011;4037;47.980;10.172;2022-11-15T15:35:02;6.20;;;5.13;;
7983;SDS011;4037;47.980;10.172;2022-11-15T15:37:28;9.23;;;7.80;;
7983;SDS011;4037;47.980;10.172;2022-11-15T15:39:57;9.90;;;6.40;;
7983;SDS011;4037;47.980;10.172;2022-11-15T15:42:23;7.13;;;5.80;;
7983;SDS011;4037;47.980;10.172;2022-11-15T15:44:49;7.13;;;5.97;;
7983;SDS011;4037;47.980;10.172;2022-11-15T15:47:16;12.47;;;8.47;;
7983;SDS011;4037;47.980;10.172;2022-11-15T15:49:44;7.47;;;5.77;;
7983;SDS011;4037;47.980;10.172;2022-11-15T15:52:10;7.33;;;4.57;;
7983;SDS011;4037;47.980;10.172;2022-11-15T15:54:36;5.20;;;4.70;;
7983;SDS011;4037;47.980;10.172;2022-11-15T15:57:02;8.97;;;6.30;;
7983;SDS011;4037;47.980;10.172;2022-11-15T15:59:29;9.97;;;6.83;;
7983;SDS011;4037;47.980;10.172;2022-11-15T16:01:56;10.60;;;7.40;;
7983;SDS011;4037;47.980;10.172;2022-11-15T16:04:22;10.80;;;6.40;;
7983;SDS011;4037;47.980;10.172;2022-11-15T16:06:48;12.00;;;7.20;;
7983;SDS011;4037;47.980;10.172;2022-11-15T16:09:17;8.70;;;6.77;;
7983;SDS011;4037;47.980;10.172;2022-11-15T16:12:04;10.03;;;5.93;;
7983;SDS011;4037;47.980;10.172;2022-11-15T16:14:30;6.33;;;5.37;;
7983;SDS011;4037;47.980;10.172;2022-11-15T16:16:56;7.23;;;5.93;;
7983;SDS011;4037;47.980;10.172;2022-11-15T16:19:22;6.40;;;5.80;;
7983;SDS011;4037;47.980;10.172;2022-11-15T16:21:49;6.30;;;5.40;;
7983;SDS011;4037;47.980;10.172;2022-11-15T16:24:17;6.27;;;5.40;;
7983;SDS011;4037;47.980;10.172;2022-11-15T16:26:43;6.73;;;5.47;;
7983;SDS011;4037;47.980;10.172;2022-11-15T16:29:09;8.27;;;6.07;;
7983;SDS011;4037;47.980;10.172;2022-11-15T16:31:35;6.47;;;5.77;;
7983;SDS011;4037;47.980;10.172;2022-11-15T16:34:01;8.07;;;6.33;;
7983;SDS011;4037;47.980;10.172;2022-11-15T16:36:29;8.33;;;7.40;;
7983;SDS011;4037;47.980;10.172;2022-11-15T16:38:56;14.77;;;10.17;;
7983;SDS011;4037;47.980;10.172;2022-11-15T16:41:22;12.37;;;9.03;;
7983;SDS011;4037;47.980;10.172;2022-11-15T16:43:48;11.93;;;8.80;;
7983;SDS011;4037;47.980;10.172;2022-11-15T16:46:24;11.13;;;7.40;;
7983;SDS011;4037;47.980;10.172;2022-11-15T16:48:50;8.57;;;7.23;;